sensor_id;sensor_type;location;lat;lon;timestamp;pressure;altitude;pressure_sealevel;temperature;humidity
31775;BME280;66189;49.000;11.640;2023-01-25T00:01:20;97509.22;;;-0.45;89.12
31775;BME280;66189;49.000;11.640;2023-01-25T00:03:21;97500.00;;;-0.42;89.13
31775;BME280;66189;49.000;11.640;2023-01-25T00:05:21;97497.94;;;-0.35;89.65
31775;BME280;66189;49.000;11.640;2023-01-25T00:07:22;97500.03;;;-0.37;89.19
31775;BME280;66189;49.000;11.640;2023-01-25T00:09:23;97499.44;;;-0.44;89.45
31775;BME280;66189;49.000;11.640;2023-01-25T00:11:24;97499.44;;;-0.44;89.42
31775;BME280;66189;49.000;11.640;2023-01-25T00:13:25;97487.03;;;-0.44;89.33
31775;BME280;66189;49.000;11.640;2023-01-25T00:15:26;97489.59;;;-0.49;89.43
31775;BME280;66189;49.000;11.640;2023-01-25T00:17:26;97497.28;;;-0.47;89.85
31775;BME280;66189;49.000;11.640;2023-01-25T00:19:26;97498.59;;;-0.50;89.20
31775;BME280;66189;49.000;11.640;2023-01-25T00:21:27;97496.69;;;-0.55;89.82
31775;BME280;66189;49.000;11.640;2023-01-25T00:23:27;97486.13;;;-0.55;89.84
31775;BME280;66189;49.000;11.640;2023-01-25T00:25:28;97489.84;;;-0.50;89.95
31775;BME280;66189;49.000;11.640;2023-01-25T00:27:28;97484.81;;;-0.52;89.81
31775;BME280;66189;49.000;11.640;2023-01-25T00:29:29;97486.72;;;-0.47;89.66
31775;BME280;66189;49.000;11.640;2023-01-25T00:33:59;97482.75;;;-0.50;90.12
31775;BME280;66189;49.000;11.640;2023-01-25T00:36:00;97480.84;;;-0.55;89.96
31775;BME280;66189;49.000;11.640;2023-01-25T00:38:02;97486.16;;;-0.49;90.17
31775;BME280;66189;49.000;11.640;2023-01-25T00:40:06;97480.34;;;-0.51;89.89
31775;BME280;66189;49.000;11.640;2023-01-25T01:40:47;97471.66;;;-0.69;90.36
31775;BME280;66189;49.000;11.640;2023-01-25T01:43:15;97470.81;;;-0.75;89.99
31775;BME280;66189;49.000;11.640;2023-01-25T01:47:48;97476.72;;;-0.67;90.17
31775;BME280;66189;49.000;11.640;2023-01-25T01:49:52;97470.13;;;-0.65;90.01
31775;BME280;66189;49.000;11.640;2023-01-25T01:52:04;97473.56;;;-0.64;89.97
31775;BME280;66189;49.000;11.640;2023-01-25T01:54:37;97473.81;;;-0.66;89.60
31775;BME280;66189;49.000;11.640;2023-01-25T01:59:03;97475.69;;;-0.66;89.75
31775;BME280;66189;49.000;11.640;2023-01-25T02:01:06;97469.03;;;-0.69;89.83
31775;BME280;66189;49.000;11.640;2023-01-25T02:03:07;97471.91;;;-0.70;89.81
31775;BME280;66189;49.000;11.640;2023-01-25T02:05:26;97468.28;;;-0.64;89.88
31775;BME280;66189;49.000;11.640;2023-01-25T02:09:31;97477.25;;;-0.65;89.31
31775;BME280;66189;49.000;11.640;2023-01-25T02:11:33;97470.63;;;-0.68;89.69
31775;BME280;66189;49.000;11.640;2023-01-25T02:13:36;97474.25;;;-0.74;89.43
31775;BME280;66189;49.000;11.640;2023-01-25T02:15:43;97472.47;;;-0.68;89.73
31775;BME280;66189;49.000;11.640;2023-01-25T02:17:46;97478.97;;;-0.76;89.37
31775;BME280;66189;49.000;11.640;2023-01-25T02:22:09;97472.41;;;-0.74;89.68
31775;BME280;66189;49.000;11.640;2023-01-25T02:24:21;97471.63;;;-0.74;89.98
31775;BME280;66189;49.000;11.640;2023-01-25T02:26:22;97470.25;;;-0.77;89.74
31775;BME280;66189;49.000;11.640;2023-01-25T02:28:30;97473.19;;;-0.73;89.53
31775;BME280;66189;49.000;11.640;2023-01-25T02:30:31;97470.38;;;-0.66;89.59
31775;BME280;66189;49.000;11.640;2023-01-25T02:32:33;97472.22;;;-0.67;89.37
31775;BME280;66189;49.000;11.640;2023-01-25T02:34:33;97473.03;;;-0.66;89.14
31775;BME280;66189;49.000;11.640;2023-01-25T02:36:36;97470.56;;;-0.73;89.25
31775;BME280;66189;49.000;11.640;2023-01-25T02:38:59;97473.78;;;-0.71;89.14
31775;BME280;66189;49.000;11.640;2023-01-25T02:41:15;97468.00;;;-0.68;89.01
31775;BME280;66189;49.000;11.640;2023-01-25T02:43:17;97466.84;;;-0.77;88.86
31775;BME280;66189;49.000;11.640;2023-01-25T02:45:21;97471.00;;;-0.81;89.04
31775;BME280;66189;49.000;11.640;2023-01-25T02:47:26;97472.66;;;-0.75;88.74
31775;BME280;66189;49.000;11.640;2023-01-25T02:49:26;97470.50;;;-0.78;89.03
31775;BME280;66189;49.000;11.640;2023-01-25T02:51:32;97472.03;;;-0.82;88.88
31775;BME280;66189;49.000;11.640;2023-01-25T02:53:32;97473.19;;;-0.73;89.36
31775;BME280;66189;49.000;11.640;2023-01-25T02:55:33;97466.59;;;-0.76;88.93
31775;BME280;66189;49.000;11.640;2023-01-25T02:57:33;97468.13;;;-0.80;88.94
31775;BME280;66189;49.000;11.640;2023-01-25T02:59:34;97468.66;;;-0.78;89.36
31775;BME280;66189;49.000;11.640;2023-01-25T03:01:38;97467.38;;;-0.75;89.35
31775;BME280;66189;49.000;11.640;2023-01-25T03:03:40;97469.97;;;-0.80;88.68
31775;BME280;66189;49.000;11.640;2023-01-25T03:05:42;97471.06;;;-0.76;88.92
31775;BME280;66189;49.000;11.640;2023-01-25T03:07:43;97462.59;;;-0.78;89.10
31775;BME280;66189;49.000;11.640;2023-01-25T03:09:43;97462.59;;;-0.78;89.18
31775;BME280;66189;49.000;11.640;2023-01-25T03:11:44;97468.91;;;-0.79;89.13
31775;BME280;66189;49.000;11.640;2023-01-25T03:13:45;97461.78;;;-0.79;88.97
31775;BME280;66189;49.000;11.640;2023-01-25T03:15:46;97457.25;;;-0.83;89.03
31775;BME280;66189;49.000;11.640;2023-01-25T03:17:46;97456.69;;;-0.85;89.21
31775;BME280;66189;49.000;11.640;2023-01-25T03:19:47;97454.91;;;-0.80;89.38
31775;BME280;66189;49.000;11.640;2023-01-25T03:21:48;97453.28;;;-0.81;88.69
31775;BME280;66189;49.000;11.640;2023-01-25T03:23:55;97454.78;;;-0.90;89.06
31775;BME280;66189;49.000;11.640;2023-01-25T03:26:11;97449.56;;;-0.85;89.41
31775;BME280;66189;49.000;11.640;2023-01-25T03:28:21;97442.19;;;-0.83;89.20
31775;BME280;66189;49.000;11.640;2023-01-25T03:30:22;97445.63;;;-0.82;89.26
31775;BME280;66189;49.000;11.640;2023-01-25T03:32:23;97444.53;;;-0.86;89.09
31775;BME280;66189;49.000;11.640;2023-01-25T03:34:23;97438.13;;;-0.91;88.91
31775;BME280;66189;49.000;11.640;2023-01-25T03:36:24;97439.78;;;-0.84;89.42
31775;BME280;66189;49.000;11.640;2023-01-25T03:38:25;97440.28;;;-0.87;89.13
31775;BME280;66189;49.000;11.640;2023-01-25T03:40:25;97430.00;;;-0.84;89.52
31775;BME280;66189;49.000;11.640;2023-01-25T03:42:26;97425.53;;;-0.83;89.11
31775;BME280;66189;49.000;11.640;2023-01-25T03:44:30;97430.88;;;-0.78;89.51
31775;BME280;66189;49.000;11.640;2023-01-25T03:46:31;97429.59;;;-0.76;89.05
31775;BME280;66189;49.000;11.640;2023-01-25T03:48:32;97422.41;;;-0.80;89.19
31775;BME280;66189;49.000;11.640;2023-01-25T03:50:33;97425.06;;;-0.80;89.10
31775;BME280;66189;49.000;11.640;2023-01-25T03:52:34;97432.97;;;-0.80;89.07
31775;BME280;66189;49.000;11.640;2023-01-25T03:54:38;97431.66;;;-0.78;88.58
31775;BME280;66189;49.000;11.640;2023-01-25T03:56:41;97429.75;;;-0.82;88.86
31775;BME280;66189;49.000;11.640;2023-01-25T03:58:49;97421.06;;;-0.83;88.92
31775;BME280;66189;49.000;11.640;2023-01-25T04:00:54;97424.44;;;-0.87;88.68
31775;BME280;66189;49.000;11.640;2023-01-25T04:02:54;97428.69;;;-0.86;89.20
31775;BME280;66189;49.000;11.640;2023-01-25T04:04:55;97430.59;;;-0.82;89.46
31775;BME280;66189;49.000;11.640;2023-01-25T04:06:56;97439.28;;;-0.81;89.19
31775;BME280;66189;49.000;11.640;2023-01-25T04:08:57;97430.00;;;-0.84;89.28
31775;BME280;66189;49.000;11.640;2023-01-25T04:11:04;97429.97;;;-0.89;89.04
31775;BME280;66189;49.000;11.640;2023-01-25T04:13:05;97422.66;;;-0.82;89.64
31775;BME280;66189;49.000;11.640;2023-01-25T04:15:06;97417.25;;;-0.92;89.03
31775;BME280;66189;49.000;11.640;2023-01-25T04:17:07;97415.72;;;-0.88;89.32
31775;BME280;66189;49.000;11.640;2023-01-25T04:19:20;97417.50;;;-0.94;88.71
31775;BME280;66189;49.000;11.640;2023-01-25T04:21:20;97418.34;;;-0.88;88.72
31775;BME280;66189;49.000;11.640;2023-01-25T04:23:23;97413.75;;;-0.98;89.08
31775;BME280;66189;49.000;11.640;2023-01-25T04:25:24;97403.19;;;-0.98;89.23
31775;BME280;66189;49.000;11.640;2023-01-25T04:27:27;97396.38;;;-0.94;89.23
31775;BME280;66189;49.000;11.640;2023-01-25T04:29:34;97395.88;;;-0.91;89.11
31775;BME280;66189;49.000;11.640;2023-01-25T04:31:36;97392.72;;;-0.87;88.43
31775;BME280;66189;49.000;11.640;2023-01-25T04:33:37;97392.13;;;-0.95;88.84
31775;BME280;66189;49.000;11.640;2023-01-25T04:35:38;97395.50;;;-0.99;89.15
31775;BME280;66189;49.000;11.640;2023-01-25T04:37:40;97389.31;;;-1.10;88.93
31775;BME280;66189;49.000;11.640;2023-01-25T04:39:41;97384.94;;;-0.99;89.10
31775;BME280;66189;49.000;11.640;2023-01-25T04:41:41;97386.22;;;-1.02;89.40
31775;BME280;66189;49.000;11.640;2023-01-25T04:43:42;97388.31;;;-1.04;89.72
31775;BME280;66189;49.000;11.640;2023-01-25T04:45:44;97393.97;;;-0.95;88.83
31775;BME280;66189;49.000;11.640;2023-01-25T04:48:00;97389.56;;;-1.12;89.00
31775;BME280;66189;49.000;11.640;2023-01-25T04:50:02;97382.31;;;-1.21;89.39
31775;BME280;66189;49.000;11.640;2023-01-25T04:52:04;97383.84;;;-1.26;89.52
31775;BME280;66189;49.000;11.640;2023-01-25T04:54:05;97376.84;;;-1.15;90.01
31775;BME280;66189;49.000;11.640;2023-01-25T04:56:06;97375.19;;;-1.21;89.62
31775;BME280;66189;49.000;11.640;2023-01-25T04:58:15;97378.94;;;-1.17;89.58
31775;BME280;66189;49.000;11.640;2023-01-25T05:00:18;97365.25;;;-1.14;89.78
31775;BME280;66189;49.000;11.640;2023-01-25T05:02:19;97363.88;;;-1.16;89.40
31775;BME280;66189;49.000;11.640;2023-01-25T05:04:20;97365.53;;;-1.10;89.62
31775;BME280;66189;49.000;11.640;2023-01-25T05:06:22;97363.13;;;-1.12;89.63
31775;BME280;66189;49.000;11.640;2023-01-25T05:08:23;97367.63;;;-1.12;89.35
31775;BME280;66189;49.000;11.640;2023-01-25T05:10:28;97360.00;;;-1.09;89.17
31775;BME280;66189;49.000;11.640;2023-01-25T05:12:51;97367.00;;;-1.19;88.71
31775;BME280;66189;49.000;11.640;2023-01-25T05:14:52;97357.66;;;-1.05;89.49
31775;BME280;66189;49.000;11.640;2023-01-25T05:16:54;97365.50;;;-1.15;88.85
31775;BME280;66189;49.000;11.640;2023-01-25T05:18:55;97370.16;;;-1.22;89.14
31775;BME280;66189;49.000;11.640;2023-01-25T05:21:04;97369.16;;;-1.16;89.43
31775;BME280;66189;49.000;11.640;2023-01-25T05:23:04;97371.31;;;-1.13;89.24
31775;BME280;66189;49.000;11.640;2023-01-25T05:25:06;97366.78;;;-1.18;89.25
31775;BME280;66189;49.000;11.640;2023-01-25T05:27:26;97371.00;;;-1.17;89.68
31775;BME280;66189;49.000;11.640;2023-01-25T05:29:34;97359.97;;;-1.14;89.57
31775;BME280;66189;49.000;11.640;2023-01-25T05:31:39;97361.50;;;-1.18;89.57
31775;BME280;66189;49.000;11.640;2023-01-25T05:33:39;97362.53;;;-1.19;89.66
31775;BME280;66189;49.000;11.640;2023-01-25T05:35:40;97354.59;;;-1.19;89.61
31775;BME280;66189;49.000;11.640;2023-01-25T05:37:40;97354.94;;;-1.15;89.61
31775;BME280;66189;49.000;11.640;2023-01-25T05:39:47;97354.94;;;-1.15;89.75
31775;BME280;66189;49.000;11.640;2023-01-25T05:41:48;97355.66;;;-1.20;89.41
31775;BME280;66189;49.000;11.640;2023-01-25T05:43:49;97350.72;;;-1.11;89.49
31775;BME280;66189;49.000;11.640;2023-01-25T05:45:52;97348.00;;;-1.21;89.10
31775;BME280;66189;49.000;11.640;2023-01-25T05:47:55;97349.16;;;-1.12;89.52
31775;BME280;66189;49.000;11.640;2023-01-25T05:49:56;97350.44;;;-1.15;89.60
31775;BME280;66189;49.000;11.640;2023-01-25T05:52:14;97347.03;;;-1.10;89.49
31775;BME280;66189;49.000;11.640;2023-01-25T05:54:16;97356.81;;;-1.11;88.68
31775;BME280;66189;49.000;11.640;2023-01-25T05:56:23;97352.28;;;-1.15;88.18
31775;BME280;66189;49.000;11.640;2023-01-25T05:58:24;97349.88;;;-1.17;88.09
31775;BME280;66189;49.000;11.640;2023-01-25T06:00:24;97344.03;;;-1.19;88.25
31775;BME280;66189;49.000;11.640;2023-01-25T06:02:25;97341.22;;;-1.12;88.17
31775;BME280;66189;49.000;11.640;2023-01-25T06:04:27;97349.53;;;-1.26;88.29
31775;BME280;66189;49.000;11.640;2023-01-25T06:06:27;97351.66;;;-1.22;88.91
31775;BME280;66189;49.000;11.640;2023-01-25T06:08:31;97351.41;;;-1.21;89.47
31775;BME280;66189;49.000;11.640;2023-01-25T06:10:31;97345.94;;;-1.14;88.75
31775;BME280;66189;49.000;11.640;2023-01-25T06:12:32;97340.97;;;-1.11;89.08
31775;BME280;66189;49.000;11.640;2023-01-25T06:14:33;97345.16;;;-1.15;88.94
31775;BME280;66189;49.000;11.640;2023-01-25T06:16:35;97339.09;;;-1.15;89.29
31775;BME280;66189;49.000;11.640;2023-01-25T06:18:58;97337.53;;;-1.11;89.06
31775;BME280;66189;49.000;11.640;2023-01-25T06:21:10;97338.91;;;-1.03;88.83
31775;BME280;66189;49.000;11.640;2023-01-25T06:23:10;97336.28;;;-1.03;88.67
31775;BME280;66189;49.000;11.640;2023-01-25T06:25:11;97334.88;;;-1.11;87.98
31775;BME280;66189;49.000;11.640;2023-01-25T06:27:11;97339.97;;;-1.04;88.87
31775;BME280;66189;49.000;11.640;2023-01-25T06:29:12;97339.09;;;-1.15;88.42
31775;BME280;66189;49.000;11.640;2023-01-25T06:31:14;97339.88;;;-0.87;86.03
31775;BME280;66189;49.000;11.640;2023-01-25T06:33:16;97334.09;;;-1.12;86.38
31775;BME280;66189;49.000;11.640;2023-01-25T06:35:16;97336.09;;;-0.97;86.24
31775;BME280;66189;49.000;11.640;2023-01-25T06:37:18;97345.94;;;-1.14;87.32
31775;BME280;66189;49.000;11.640;2023-01-25T06:39:20;97335.09;;;-1.18;88.29
31775;BME280;66189;49.000;11.640;2023-01-25T06:41:21;97334.34;;;-1.13;88.09
31775;BME280;66189;49.000;11.640;2023-01-25T06:43:22;97333.72;;;-1.20;88.78
31775;BME280;66189;49.000;11.640;2023-01-25T06:45:22;97336.47;;;-1.10;88.95
31775;BME280;66189;49.000;11.640;2023-01-25T06:47:23;97328.59;;;-1.05;88.48
31775;BME280;66189;49.000;11.640;2023-01-25T06:49:23;97328.03;;;-1.12;88.34
31775;BME280;66189;49.000;11.640;2023-01-25T06:51:24;97339.25;;;-1.22;88.42
31775;BME280;66189;49.000;11.640;2023-01-25T06:53:29;97332.97;;;-1.16;88.52
31775;BME280;66189;49.000;11.640;2023-01-25T06:55:30;97327.41;;;-1.19;88.84
31775;BME280;66189;49.000;11.640;2023-01-25T06:57:30;97332.59;;;-1.25;89.26
31775;BME280;66189;49.000;11.640;2023-01-25T06:59:31;97333.69;;;-1.26;88.92
31775;BME280;66189;49.000;11.640;2023-01-25T07:01:31;97335.03;;;-1.23;88.97
31775;BME280;66189;49.000;11.640;2023-01-25T07:03:33;97324.16;;;-1.27;88.28
31775;BME280;66189;49.000;11.640;2023-01-25T07:05:34;97332.03;;;-1.32;88.57
31775;BME280;66189;49.000;11.640;2023-01-25T07:07:34;97327.28;;;-1.30;88.91
31775;BME280;66189;49.000;11.640;2023-01-25T07:09:35;97326.50;;;-1.30;89.13
31775;BME280;66189;49.000;11.640;2023-01-25T07:11:36;97324.09;;;-1.32;89.12
31775;BME280;66189;49.000;11.640;2023-01-25T07:13:36;97325.13;;;-1.33;88.76
31775;BME280;66189;49.000;11.640;2023-01-25T07:15:37;97326.50;;;-1.30;88.73
31775;BME280;66189;49.000;11.640;2023-01-25T07:17:37;97314.66;;;-1.00;87.02
31775;BME280;66189;49.000;11.640;2023-01-25T07:19:38;97323.94;;;-0.98;86.64
31775;BME280;66189;49.000;11.640;2023-01-25T07:21:38;97326.81;;;-0.99;86.53
31775;BME280;66189;49.000;11.640;2023-01-25T07:23:39;97325.81;;;-1.20;87.57
31775;BME280;66189;49.000;11.640;2023-01-25T07:25:48;97325.81;;;-1.20;88.35
31775;BME280;66189;49.000;11.640;2023-01-25T07:27:48;97322.78;;;-1.29;88.98
31775;BME280;66189;49.000;11.640;2023-01-25T07:29:49;97324.34;;;-1.33;89.09
31775;BME280;66189;49.000;11.640;2023-01-25T07:31:49;97320.16;;;-1.29;89.43
31775;BME280;66189;49.000;11.640;2023-01-25T07:33:52;97327.00;;;-1.33;88.98
31775;BME280;66189;49.000;11.640;2023-01-25T07:35:53;97319.91;;;-1.28;88.80
31775;BME280;66189;49.000;11.640;2023-01-25T07:37:54;97324.66;;;-1.30;89.07
31775;BME280;66189;49.000;11.640;2023-01-25T07:39:55;97328.94;;;-1.23;89.10
31775;BME280;66189;49.000;11.640;2023-01-25T07:41:57;97322.06;;;-1.25;89.05
31775;BME280;66189;49.000;11.640;2023-01-25T07:44:04;97323.41;;;-1.22;88.99
31775;BME280;66189;49.000;11.640;2023-01-25T07:46:28;97319.97;;;-1.22;89.12
31775;BME280;66189;49.000;11.640;2023-01-25T07:48:29;97322.75;;;-1.34;89.64
31775;BME280;66189;49.000;11.640;2023-01-25T07:50:29;97320.41;;;-1.31;89.62
31775;BME280;66189;49.000;11.640;2023-01-25T07:52:29;97319.72;;;-1.43;89.30
31775;BME280;66189;49.000;11.640;2023-01-25T07:54:30;97317.34;;;-1.45;88.36
31775;BME280;66189;49.000;11.640;2023-01-25T07:56:33;97319.00;;;-1.38;88.31
31775;BME280;66189;49.000;11.640;2023-01-25T07:58:34;97310.59;;;-1.35;88.70
31775;BME280;66189;49.000;11.640;2023-01-25T08:00:34;97312.72;;;-1.32;89.07
31775;BME280;66189;49.000;11.640;2023-01-25T08:02:35;97312.63;;;-1.42;89.18
31775;BME280;66189;49.000;11.640;2023-01-25T08:04:35;97323.53;;;-1.34;89.64
31775;BME280;66189;49.000;11.640;2023-01-25T08:06:37;97327.72;;;-1.38;89.20
31775;BME280;66189;49.000;11.640;2023-01-25T08:08:43;97332.03;;;-1.32;89.34
31775;BME280;66189;49.000;11.640;2023-01-25T08:10:44;97335.22;;;-1.30;89.24
31775;BME280;66189;49.000;11.640;2023-01-25T08:12:45;97332.41;;;-1.23;89.67
31775;BME280;66189;49.000;11.640;2023-01-25T08:14:45;97336.59;;;-1.22;89.29
31775;BME280;66189;49.000;11.640;2023-01-25T08:16:46;97333.09;;;-1.28;89.33
31775;BME280;66189;49.000;11.640;2023-01-25T08:18:47;97323.72;;;-1.18;88.81
31775;BME280;66189;49.000;11.640;2023-01-25T08:20:48;97328.81;;;-1.12;88.98
31775;BME280;66189;49.000;11.640;2023-01-25T08:22:50;97325.44;;;-1.29;89.28
31775;BME280;66189;49.000;11.640;2023-01-25T08:24:51;97323.53;;;-1.12;89.49
31775;BME280;66189;49.000;11.640;2023-01-25T08:26:51;97320.47;;;-1.26;89.59
31775;BME280;66189;49.000;11.640;2023-01-25T08:28:52;97319.97;;;-1.22;89.65
31775;BME280;66189;49.000;11.640;2023-01-25T08:30:53;97323.13;;;-1.26;89.47
31775;BME280;66189;49.000;11.640;2023-01-25T08:32:53;97319.47;;;-1.19;88.95
31775;BME280;66189;49.000;11.640;2023-01-25T08:34:53;97315.72;;;-1.23;89.00
31775;BME280;66189;49.000;11.640;2023-01-25T08:36:54;97310.81;;;-1.15;89.43
31775;BME280;66189;49.000;11.640;2023-01-25T08:38:56;97316.59;;;-1.18;88.84
31775;BME280;66189;49.000;11.640;2023-01-25T08:41:09;97306.78;;;-1.22;88.77
31775;BME280;66189;49.000;11.640;2023-01-25T08:43:10;97306.81;;;-1.17;88.59
31775;BME280;66189;49.000;11.640;2023-01-25T08:45:10;97311.84;;;-1.16;88.71
31775;BME280;66189;49.000;11.640;2023-01-25T08:47:11;97310.56;;;-1.13;87.93
31775;BME280;66189;49.000;11.640;2023-01-25T08:49:11;97325.25;;;-1.22;87.87
31775;BME280;66189;49.000;11.640;2023-01-25T08:51:14;97316.31;;;-1.21;88.20
31775;BME280;66189;49.000;11.640;2023-01-25T08:53:15;97317.03;;;-0.99;87.42
31775;BME280;66189;49.000;11.640;2023-01-25T08:55:16;97318.28;;;-1.07;87.23
31775;BME280;66189;49.000;11.640;2023-01-25T08:57:16;97312.91;;;-1.17;88.14
31775;BME280;66189;49.000;11.640;2023-01-25T08:59:17;97314.00;;;-1.13;88.54
31775;BME280;66189;49.000;11.640;2023-01-25T09:01:18;97311.97;;;-1.05;88.93
31775;BME280;66189;49.000;11.640;2023-01-25T09:03:19;97315.31;;;-1.15;88.70
31775;BME280;66189;49.000;11.640;2023-01-25T09:05:19;97316.84;;;-1.19;88.90
31775;BME280;66189;49.000;11.640;2023-01-25T09:07:20;97306.28;;;-1.19;88.83
31775;BME280;66189;49.000;11.640;2023-01-25T09:09:20;97309.97;;;-1.20;88.95
31775;BME280;66189;49.000;11.640;2023-01-25T09:11:24;97311.28;;;-1.23;88.94
31775;BME280;66189;49.000;11.640;2023-01-25T09:13:24;97301.28;;;-1.16;89.29
31775;BME280;66189;49.000;11.640;2023-01-25T09:15:25;97302.59;;;-1.18;89.22
31775;BME280;66189;49.000;11.640;2023-01-25T09:17:25;97299.47;;;-1.15;89.51
31775;BME280;66189;49.000;11.640;2023-01-25T09:19:26;97291.56;;;-1.15;88.98
31775;BME280;66189;49.000;11.640;2023-01-25T09:21:27;97291.34;;;-1.31;89.28
31775;BME280;66189;49.000;11.640;2023-01-25T09:23:27;97287.94;;;-1.31;89.27
31775;BME280;66189;49.000;11.640;2023-01-25T09:25:28;97294.63;;;-1.23;89.64
31775;BME280;66189;49.000;11.640;2023-01-25T09:27:28;97288.53;;;-1.24;89.96
31775;BME280;66189;49.000;11.640;2023-01-25T09:29:29;97297.81;;;-1.21;89.27
31775;BME280;66189;49.000;11.640;2023-01-25T09:31:29;97287.16;;;-1.32;89.28
31775;BME280;66189;49.000;11.640;2023-01-25T09:33:42;97290.28;;;-1.35;89.59
31775;BME280;66189;49.000;11.640;2023-01-25T09:35:49;97286.56;;;-1.34;89.94
31775;BME280;66189;49.000;11.640;2023-01-25T09:38:00;97282.91;;;-1.33;89.83
31775;BME280;66189;49.000;11.640;2023-01-25T09:40:30;97292.34;;;-1.37;89.66
31775;BME280;66189;49.000;11.640;2023-01-25T09:46:57;97280.88;;;-1.48;89.59
31775;BME280;66189;49.000;11.640;2023-01-25T09:51:48;97286.31;;;-1.32;88.73
31775;BME280;66189;49.000;11.640;2023-01-25T09:53:54;97271.47;;;-1.38;88.50
31775;BME280;66189;49.000;11.640;2023-01-25T09:56:31;97281.66;;;-1.25;88.68
31775;BME280;66189;49.000;11.640;2023-01-25T09:58:37;97280.75;;;-1.36;88.60
31775;BME280;66189;49.000;11.640;2023-01-25T10:00:44;97273.88;;;-1.37;88.98
31775;BME280;66189;49.000;11.640;2023-01-25T10:05:03;97270.97;;;-1.35;90.03
31775;BME280;66189;49.000;11.640;2023-01-25T10:07:26;97265.16;;;-1.37;90.20
31775;BME280;66189;49.000;11.640;2023-01-25T10:09:45;97269.50;;;-1.26;90.20
31775;BME280;66189;49.000;11.640;2023-01-25T10:11:48;97259.13;;;-1.33;89.73
31775;BME280;66189;49.000;11.640;2023-01-25T10:13:49;97260.66;;;-1.15;90.18
31775;BME280;66189;49.000;11.640;2023-01-25T10:15:54;97260.84;;;-1.21;90.20
31775;BME280;66189;49.000;11.640;2023-01-25T10:22:37;97258.41;;;-1.28;89.80
31775;BME280;66189;49.000;11.640;2023-01-25T10:25:37;97260.28;;;-1.23;90.03
31775;BME280;66189;49.000;11.640;2023-01-25T10:29:36;97249.53;;;-1.17;89.31
31775;BME280;66189;49.000;11.640;2023-01-25T10:31:46;97250.88;;;-1.14;89.41
31775;BME280;66189;49.000;11.640;2023-01-25T10:33:49;97246.91;;;-1.17;89.00
31775;BME280;66189;49.000;11.640;2023-01-25T10:35:51;97242.00;;;-1.03;88.66
31775;BME280;66189;49.000;11.640;2023-01-25T10:37:52;97238.47;;;-1.14;88.09
31775;BME280;66189;49.000;11.640;2023-01-25T10:39:58;97236.03;;;-1.20;87.92
31775;BME280;66189;49.000;11.640;2023-01-25T10:42:11;97236.00;;;-1.26;88.53
31775;BME280;66189;49.000;11.640;2023-01-25T10:44:13;97224.53;;;-1.09;87.77
31775;BME280;66189;49.000;11.640;2023-01-25T10:46:26;97219.53;;;-1.05;87.03
31775;BME280;66189;49.000;11.640;2023-01-25T10:48:33;97217.75;;;-1.27;87.98
31775;BME280;66189;49.000;11.640;2023-01-25T10:52:37;97202.69;;;-1.27;89.20
31775;BME280;66189;49.000;11.640;2023-01-25T10:54:38;97209.72;;;-1.37;89.40
31775;BME280;66189;49.000;11.640;2023-01-25T10:56:39;97205.84;;;-1.30;89.47
31775;BME280;66189;49.000;11.640;2023-01-25T10:58:43;97200.22;;;-1.38;89.24
31775;BME280;66189;49.000;11.640;2023-01-25T11:00:50;97191.78;;;-1.35;89.51
31775;BME280;66189;49.000;11.640;2023-01-25T11:02:51;97199.31;;;-1.22;89.47
31775;BME280;66189;49.000;11.640;2023-01-25T11:04:52;97192.03;;;-1.10;87.16
31775;BME280;66189;49.000;11.640;2023-01-25T11:06:53;97188.50;;;-1.20;87.66
31775;BME280;66189;49.000;11.640;2023-01-25T11:08:53;97189.97;;;-1.35;87.83
31775;BME280;66189;49.000;11.640;2023-01-25T11:10:55;97180.03;;;-1.22;87.21
31775;BME280;66189;49.000;11.640;2023-01-25T11:15:23;97175.03;;;-1.19;87.75
31775;BME280;66189;49.000;11.640;2023-01-25T11:17:27;97170.84;;;-1.20;87.95
31775;BME280;66189;49.000;11.640;2023-01-25T11:19:37;97169.81;;;-1.14;87.81
31775;BME280;66189;49.000;11.640;2023-01-25T11:21:50;97167.28;;;-1.31;88.16
31775;BME280;66189;49.000;11.640;2023-01-25T11:26:15;97160.97;;;-1.30;88.86
31775;BME280;66189;49.000;11.640;2023-01-25T11:28:21;97168.19;;;-1.20;89.76
31775;BME280;66189;49.000;11.640;2023-01-25T11:30:22;97156.53;;;-1.24;89.28
31775;BME280;66189;49.000;11.640;2023-01-25T11:32:24;97153.06;;;-1.25;89.08
31775;BME280;66189;49.000;11.640;2023-01-25T11:34:26;97160.84;;;-1.13;89.88
31775;BME280;66189;49.000;11.640;2023-01-25T11:41:09;97139.72;;;-1.13;89.57
31775;BME280;66189;49.000;11.640;2023-01-25T11:44:05;97124.19;;;-1.04;89.71
31775;BME280;66189;49.000;11.640;2023-01-25T11:57:36;97104.34;;;-1.12;88.50
31775;BME280;66189;49.000;11.640;2023-01-25T12:00:01;97105.19;;;-1.06;88.57
31775;BME280;66189;49.000;11.640;2023-01-25T12:04:56;97092.84;;;-0.90;88.15
31775;BME280;66189;49.000;11.640;2023-01-25T12:07:01;97089.75;;;-0.82;88.80
31775;BME280;66189;49.000;11.640;2023-01-25T12:09:23;97084.94;;;-0.90;89.43
31775;BME280;66189;49.000;11.640;2023-01-25T12:16:09;97083.13;;;-0.84;89.62
31775;BME280;66189;49.000;11.640;2023-01-25T12:28:09;97050.41;;;-0.73;87.75
31775;BME280;66189;49.000;11.640;2023-01-25T12:30:17;97049.09;;;-0.70;87.82
31775;BME280;66189;49.000;11.640;2023-01-25T12:32:30;97047.75;;;-0.73;87.97
31775;BME280;66189;49.000;11.640;2023-01-25T12:34:37;97046.75;;;-0.67;87.47
31775;BME280;66189;49.000;11.640;2023-01-25T12:36:44;97043.28;;;-0.73;87.82
31775;BME280;66189;49.000;11.640;2023-01-25T12:38:56;97042.97;;;-0.81;87.53
31775;BME280;66189;49.000;11.640;2023-01-25T12:41:02;97028.69;;;-0.85;87.42
31775;BME280;66189;49.000;11.640;2023-01-25T12:43:13;97029.78;;;-0.81;88.10
31775;BME280;66189;49.000;11.640;2023-01-25T12:45:18;97032.16;;;-0.75;88.10
31775;BME280;66189;49.000;11.640;2023-01-25T12:49:45;97026.38;;;-0.72;87.69
31775;BME280;66189;49.000;11.640;2023-01-25T12:51:50;97021.63;;;-0.69;87.25
31775;BME280;66189;49.000;11.640;2023-01-25T12:53:53;97014.78;;;-0.65;87.41
31775;BME280;66189;49.000;11.640;2023-01-25T12:55:55;97011.88;;;-0.64;86.90
31775;BME280;66189;49.000;11.640;2023-01-25T13:00:33;97006.09;;;-0.56;87.26